sensor_id;sensor_type;location;lat;lon;timestamp;pressure;altitude;pressure_sealevel;temperature
68510;BMP180;55512;50.102;19.958;2023-06-01T00:01:27;98990.00;;;13.60
68510;BMP180;55512;50.102;19.958;2023-06-01T00:04:01;98990.20;;;13.50
68510;BMP180;55512;50.102;19.958;2023-06-01T00:06:26;98987.80;;;13.48
68510;BMP180;55512;50.102;19.958;2023-06-01T00:08:56;98982.60;;;13.40
68510;BMP180;55512;50.102;19.958;2023-06-01T00:11:22;98981.80;;;13.30
68510;BMP180;55512;50.102;19.958;2023-06-01T00:13:49;98982.60;;;13.22
68510;BMP180;55512;50.102;19.958;2023-06-01T00:16:15;98979.20;;;13.20
68510;BMP180;55512;50.102;19.958;2023-06-01T00:18:42;98980.00;;;13.20
68510;BMP180;55512;50.102;19.958;2023-06-01T00:21:09;98978.00;;;13.10
68510;BMP180;55512;50.102;19.958;2023-06-01T00:23:35;98979.20;;;13.10
68510;BMP180;55512;50.102;19.958;2023-06-01T00:26:01;98977.00;;;13.04
68510;BMP180;55512;50.102;19.958;2023-06-01T00:28:27;98976.40;;;13.00
68510;BMP180;55512;50.102;19.958;2023-06-01T00:30:53;98982.40;;;13.00
68510;BMP180;55512;50.102;19.958;2023-06-01T00:33:20;98980.40;;;12.94
68510;BMP180;55512;50.102;19.958;2023-06-01T00:35:45;98980.20;;;12.90
68510;BMP180;55512;50.102;19.958;2023-06-01T00:38:11;98979.40;;;12.90
68510;BMP180;55512;50.102;19.958;2023-06-01T00:40:36;98977.40;;;12.88
68510;BMP180;55512;50.102;19.958;2023-06-01T00:43:02;98972.40;;;12.80
68510;BMP180;55512;50.102;19.958;2023-06-01T00:45:28;98972.20;;;12.80
68510;BMP180;55512;50.102;19.958;2023-06-01T00:47:54;98975.60;;;12.80
68510;BMP180;55512;50.102;19.958;2023-06-01T00:50:21;98975.60;;;12.80
68510;BMP180;55512;50.102;19.958;2023-06-01T00:52:51;98979.00;;;12.76
68510;BMP180;55512;50.102;19.958;2023-06-01T00:55:20;98979.20;;;12.70
68510;BMP180;55512;50.102;19.958;2023-06-01T00:57:48;98981.80;;;12.70
68510;BMP180;55512;50.102;19.958;2023-06-01T01:00:15;98978.60;;;12.68
68510;BMP180;55512;50.102;19.958;2023-06-01T01:02:42;98978.00;;;12.60
68510;BMP180;55512;50.102;19.958;2023-06-01T01:05:10;98974.40;;;12.60
68510;BMP180;55512;50.102;19.958;2023-06-01T01:07:51;98972.80;;;12.50
68510;BMP180;55512;50.102;19.958;2023-06-01T01:13:31;98969.00;;;12.40
68510;BMP180;55512;50.102;19.958;2023-06-01T01:16:21;98970.20;;;12.40
68510;BMP180;55512;50.102;19.958;2023-06-01T01:19:23;98972.00;;;12.40
68510;BMP180;55512;50.102;19.958;2023-06-01T01:25:21;98968.60;;;12.26
68510;BMP180;55512;50.102;19.958;2023-06-01T01:30:41;98960.60;;;12.20
68510;BMP180;55512;50.102;19.958;2023-06-01T01:33:09;98963.80;;;12.10
68510;BMP180;55512;50.102;19.958;2023-06-01T01:35:36;98963.20;;;12.10
68510;BMP180;55512;50.102;19.958;2023-06-01T01:38:02;98957.80;;;12.10
68510;BMP180;55512;50.102;19.958;2023-06-01T01:40:28;98956.20;;;12.00
68510;BMP180;55512;50.102;19.958;2023-06-01T01:42:54;98956.60;;;11.92
68510;BMP180;55512;50.102;19.958;2023-06-01T01:45:20;98951.20;;;11.90
68510;BMP180;55512;50.102;19.958;2023-06-01T01:48:10;98950.80;;;11.80
68510;BMP180;55512;50.102;19.958;2023-06-01T01:50:50;98950.00;;;11.78
68510;BMP180;55512;50.102;19.958;2023-06-01T01:53:16;98948.20;;;11.70
68510;BMP180;55512;50.102;19.958;2023-06-01T01:55:45;98950.00;;;11.64
68510;BMP180;55512;50.102;19.958;2023-06-01T01:58:12;98948.80;;;11.70
68510;BMP180;55512;50.102;19.958;2023-06-01T02:00:39;98946.40;;;11.64
68510;BMP180;55512;50.102;19.958;2023-06-01T02:03:14;98949.80;;;11.60
68510;BMP180;55512;50.102;19.958;2023-06-01T02:05:40;98948.80;;;11.60
68510;BMP180;55512;50.102;19.958;2023-06-01T02:08:05;98945.60;;;11.60
68510;BMP180;55512;50.102;19.958;2023-06-01T02:10:31;98934.80;;;11.50
68510;BMP180;55512;50.102;19.958;2023-06-01T02:12:56;98938.00;;;11.50
68510;BMP180;55512;50.102;19.958;2023-06-01T02:15:22;98935.00;;;11.50
68510;BMP180;55512;50.102;19.958;2023-06-01T02:17:47;98938.80;;;11.40
68510;BMP180;55512;50.102;19.958;2023-06-01T02:20:13;98939.80;;;11.30
68510;BMP180;55512;50.102;19.958;2023-06-01T02:22:39;98935.00;;;11.20
68510;BMP180;55512;50.102;19.958;2023-06-01T02:25:05;98931.00;;;11.12
68510;BMP180;55512;50.102;19.958;2023-06-01T02:27:31;98927.00;;;11.10
68510;BMP180;55512;50.102;19.958;2023-06-01T02:29:56;98928.60;;;11.10
68510;BMP180;55512;50.102;19.958;2023-06-01T02:32:22;98926.80;;;11.04
68510;BMP180;55512;50.102;19.958;2023-06-01T02:34:47;98926.00;;;11.00
68510;BMP180;55512;50.102;19.958;2023-06-01T02:37:13;98924.00;;;11.00
68510;BMP180;55512;50.102;19.958;2023-06-01T02:39:39;98919.40;;;10.94
68510;BMP180;55512;50.102;19.958;2023-06-01T02:42:05;98917.60;;;10.90
68510;BMP180;55512;50.102;19.958;2023-06-01T02:44:30;98917.40;;;10.90
68510;BMP180;55512;50.102;19.958;2023-06-01T02:46:56;98917.00;;;10.94
68510;BMP180;55512;50.102;19.958;2023-06-01T02:49:21;98917.00;;;10.90
68510;BMP180;55512;50.102;19.958;2023-06-01T02:51:47;98915.00;;;10.90
68510;BMP180;55512;50.102;19.958;2023-06-01T02:54:12;98913.60;;;10.90
68510;BMP180;55512;50.102;19.958;2023-06-01T02:56:37;98912.80;;;10.90
68510;BMP180;55512;50.102;19.958;2023-06-01T02:59:03;98911.00;;;10.90
68510;BMP180;55512;50.102;19.958;2023-06-01T03:01:28;98902.40;;;10.92
68510;BMP180;55512;50.102;19.958;2023-06-01T03:04:03;98905.00;;;11.00
68510;BMP180;55512;50.102;19.958;2023-06-01T03:06:30;98901.20;;;11.00
68510;BMP180;55512;50.102;19.958;2023-06-01T03:09:04;98906.40;;;11.00
68510;BMP180;55512;50.102;19.958;2023-06-01T03:11:29;98904.40;;;11.00
68510;BMP180;55512;50.102;19.958;2023-06-01T03:13:55;98906.20;;;11.00
68510;BMP180;55512;50.102;19.958;2023-06-01T03:16:23;98904.20;;;11.00
68510;BMP180;55512;50.102;19.958;2023-06-01T03:18:48;98903.40;;;11.00
68510;BMP180;55512;50.102;19.958;2023-06-01T03:21:14;98910.00;;;11.00
68510;BMP180;55512;50.102;19.958;2023-06-01T03:23:41;98908.20;;;11.00
68510;BMP180;55512;50.102;19.958;2023-06-01T03:26:10;98912.00;;;11.00
68510;BMP180;55512;50.102;19.958;2023-06-01T03:28:38;98910.80;;;11.00
68510;BMP180;55512;50.102;19.958;2023-06-01T03:31:04;98912.40;;;11.10
68510;BMP180;55512;50.102;19.958;2023-06-01T03:33:31;98908.00;;;11.04
68510;BMP180;55512;50.102;19.958;2023-06-01T03:35:56;98911.40;;;11.10
68510;BMP180;55512;50.102;19.958;2023-06-01T03:38:22;98909.80;;;11.10
68510;BMP180;55512;50.102;19.958;2023-06-01T03:40:48;98903.40;;;11.20
68510;BMP180;55512;50.102;19.958;2023-06-01T03:43:14;98909.20;;;11.20
68510;BMP180;55512;50.102;19.958;2023-06-01T03:45:39;98903.60;;;11.28
68510;BMP180;55512;50.102;19.958;2023-06-01T03:48:05;98904.20;;;11.28
68510;BMP180;55512;50.102;19.958;2023-06-01T03:50:31;98905.00;;;11.24
68510;BMP180;55512;50.102;19.958;2023-06-01T03:52:56;98901.60;;;11.20
68510;BMP180;55512;50.102;19.958;2023-06-01T03:55:22;98907.80;;;11.22
68510;BMP180;55512;50.102;19.958;2023-06-01T03:57:48;98904.60;;;11.30
68510;BMP180;55512;50.102;19.958;2023-06-01T04:00:14;98900.80;;;11.30
68510;BMP180;55512;50.102;19.958;2023-06-01T04:02:57;98894.80;;;11.36
68510;BMP180;55512;50.102;19.958;2023-06-01T04:05:24;98898.00;;;11.40
68510;BMP180;55512;50.102;19.958;2023-06-01T04:07:52;98896.40;;;11.44
68510;BMP180;55512;50.102;19.958;2023-06-01T04:10:19;98897.40;;;11.50
68510;BMP180;55512;50.102;19.958;2023-06-01T04:12:48;98898.60;;;11.60
68510;BMP180;55512;50.102;19.958;2023-06-01T04:15:19;98905.00;;;11.60
68510;BMP180;55512;50.102;19.958;2023-06-01T04:17:45;98904.40;;;11.68
68510;BMP180;55512;50.102;19.958;2023-06-01T04:20:14;98896.20;;;11.70
68510;BMP180;55512;50.102;19.958;2023-06-01T04:22:42;98894.60;;;11.80
68510;BMP180;55512;50.102;19.958;2023-06-01T04:25:11;98894.40;;;11.90
68510;BMP180;55512;50.102;19.958;2023-06-01T04:27:47;98895.60;;;11.94
68510;BMP180;55512;50.102;19.958;2023-06-01T04:30:15;98899.20;;;12.02
68510;BMP180;55512;50.102;19.958;2023-06-01T04:32:42;98901.00;;;12.10
68510;BMP180;55512;50.102;19.958;2023-06-01T04:35:09;98896.40;;;12.20
68510;BMP180;55512;50.102;19.958;2023-06-01T04:37:37;98896.20;;;12.24
68510;BMP180;55512;50.102;19.958;2023-06-01T04:40:05;98890.00;;;12.30
68510;BMP180;55512;50.102;19.958;2023-06-01T04:42:36;98883.00;;;12.40
68510;BMP180;55512;50.102;19.958;2023-06-01T04:45:14;98885.20;;;12.44
68510;BMP180;55512;50.102;19.958;2023-06-01T04:47:41;98878.60;;;12.50
68510;BMP180;55512;50.102;19.958;2023-06-01T04:50:11;98880.80;;;12.60
68510;BMP180;55512;50.102;19.958;2023-06-01T04:52:39;98882.80;;;12.60
68510;BMP180;55512;50.102;19.958;2023-06-01T04:55:06;98879.00;;;12.70
68510;BMP180;55512;50.102;19.958;2023-06-01T04:57:34;98879.40;;;12.80
68510;BMP180;55512;50.102;19.958;2023-06-01T05:00:04;98881.40;;;12.90
68510;BMP180;55512;50.102;19.958;2023-06-01T05:02:34;98885.20;;;13.00
68510;BMP180;55512;50.102;19.958;2023-06-01T05:04:59;98884.40;;;13.10
68510;BMP180;55512;50.102;19.958;2023-06-01T05:07:25;98882.60;;;13.20
68510;BMP180;55512;50.102;19.958;2023-06-01T05:09:51;98882.40;;;13.24
68510;BMP180;55512;50.102;19.958;2023-06-01T05:12:16;98883.80;;;13.38
68510;BMP180;55512;50.102;19.958;2023-06-01T05:14:42;98882.40;;;13.50
68510;BMP180;55512;50.102;19.958;2023-06-01T05:17:07;98882.60;;;13.60
68510;BMP180;55512;50.102;19.958;2023-06-01T05:19:33;98883.80;;;13.70
68510;BMP180;55512;50.102;19.958;2023-06-01T05:21:58;98876.80;;;13.80
68510;BMP180;55512;50.102;19.958;2023-06-01T05:24:23;98880.40;;;13.90
68510;BMP180;55512;50.102;19.958;2023-06-01T05:26:49;98872.60;;;14.00
68510;BMP180;55512;50.102;19.958;2023-06-01T05:29:14;98873.80;;;14.10
68510;BMP180;55512;50.102;19.958;2023-06-01T05:31:40;98873.00;;;14.28
68510;BMP180;55512;50.102;19.958;2023-06-01T05:34:06;98871.00;;;14.38
68510;BMP180;55512;50.102;19.958;2023-06-01T05:36:32;98873.60;;;14.50
68510;BMP180;55512;50.102;19.958;2023-06-01T05:38:58;98872.40;;;14.60
68510;BMP180;55512;50.102;19.958;2023-06-01T05:41:24;98873.40;;;14.70
68510;BMP180;55512;50.102;19.958;2023-06-01T05:43:52;98869.80;;;14.90
68510;BMP180;55512;50.102;19.958;2023-06-01T05:46:17;98872.40;;;15.00
68510;BMP180;55512;50.102;19.958;2023-06-01T05:48:43;98873.80;;;15.10
68510;BMP180;55512;50.102;19.958;2023-06-01T05:51:09;98875.60;;;15.20
68510;BMP180;55512;50.102;19.958;2023-06-01T05:53:34;98874.20;;;15.30
68510;BMP180;55512;50.102;19.958;2023-06-01T05:56:00;98872.20;;;15.40
68510;BMP180;55512;50.102;19.958;2023-06-01T05:58:25;98874.20;;;15.50
68510;BMP180;55512;50.102;19.958;2023-06-01T06:00:51;98869.20;;;15.70
68510;BMP180;55512;50.102;19.958;2023-06-01T06:03:16;98868.00;;;15.80
68510;BMP180;55512;50.102;19.958;2023-06-01T06:05:42;98866.20;;;15.90
68510;BMP180;55512;50.102;19.958;2023-06-01T06:08:07;98861.40;;;16.00
68510;BMP180;55512;50.102;19.958;2023-06-01T06:10:32;98866.00;;;16.10
68510;BMP180;55512;50.102;19.958;2023-06-01T06:12:58;98861.80;;;16.20
68510;BMP180;55512;50.102;19.958;2023-06-01T06:15:23;98862.60;;;16.30
68510;BMP180;55512;50.102;19.958;2023-06-01T06:17:49;98864.20;;;16.40
68510;BMP180;55512;50.102;19.958;2023-06-01T06:20:15;98870.00;;;16.56
68510;BMP180;55512;50.102;19.958;2023-06-01T06:22:42;98859.20;;;16.68
68510;BMP180;55512;50.102;19.958;2023-06-01T06:25:08;98861.00;;;16.80
68510;BMP180;55512;50.102;19.958;2023-06-01T06:27:34;98865.00;;;16.90
68510;BMP180;55512;50.102;19.958;2023-06-01T06:30:00;98865.40;;;17.00
68510;BMP180;55512;50.102;19.958;2023-06-01T06:32:26;98867.40;;;17.10
68510;BMP180;55512;50.102;19.958;2023-06-01T06:34:51;98867.80;;;17.20
68510;BMP180;55512;50.102;19.958;2023-06-01T06:37:17;98866.40;;;17.30
68510;BMP180;55512;50.102;19.958;2023-06-01T06:39:44;98866.60;;;17.40
68510;BMP180;55512;50.102;19.958;2023-06-01T06:42:10;98865.40;;;17.50
68510;BMP180;55512;50.102;19.958;2023-06-01T06:44:35;98862.80;;;17.60
68510;BMP180;55512;50.102;19.958;2023-06-01T06:47:01;98858.80;;;17.70
68510;BMP180;55512;50.102;19.958;2023-06-01T06:49:26;98859.20;;;17.72
68510;BMP180;55512;50.102;19.958;2023-06-01T06:51:52;98861.20;;;17.86
68510;BMP180;55512;50.102;19.958;2023-06-01T06:54:18;98856.00;;;17.98
68510;BMP180;55512;50.102;19.958;2023-06-01T06:56:43;98858.40;;;18.08
68510;BMP180;55512;50.102;19.958;2023-06-01T06:59:10;98854.00;;;18.12
68510;BMP180;55512;50.102;19.958;2023-06-01T07:01:35;98855.20;;;18.20
68510;BMP180;55512;50.102;19.958;2023-06-01T07:04:04;98849.60;;;18.30
68510;BMP180;55512;50.102;19.958;2023-06-01T07:06:31;98854.80;;;18.40
68510;BMP180;55512;50.102;19.958;2023-06-01T07:08:58;98855.80;;;18.50
68510;BMP180;55512;50.102;19.958;2023-06-01T07:11:24;98856.00;;;18.58
68510;BMP180;55512;50.102;19.958;2023-06-01T07:13:55;98859.00;;;18.62
68510;BMP180;55512;50.102;19.958;2023-06-01T07:16:23;98853.00;;;18.70
68510;BMP180;55512;50.102;19.958;2023-06-01T07:18:50;98854.20;;;18.80
68510;BMP180;55512;50.102;19.958;2023-06-01T07:21:16;98851.20;;;18.90
68510;BMP180;55512;50.102;19.958;2023-06-01T07:23:42;98852.40;;;18.98
68510;BMP180;55512;50.102;19.958;2023-06-01T07:26:08;98845.60;;;19.00
68510;BMP180;55512;50.102;19.958;2023-06-01T07:28:34;98847.00;;;19.10
68510;BMP180;55512;50.102;19.958;2023-06-01T07:31:00;98848.20;;;19.22
68510;BMP180;55512;50.102;19.958;2023-06-01T07:33:25;98845.40;;;19.34
68510;BMP180;55512;50.102;19.958;2023-06-01T07:35:51;98844.20;;;19.44
68510;BMP180;55512;50.102;19.958;2023-06-01T07:38:19;98846.40;;;19.56
68510;BMP180;55512;50.102;19.958;2023-06-01T07:40:46;98846.00;;;19.60
68510;BMP180;55512;50.102;19.958;2023-06-01T07:43:11;98847.60;;;19.70
68510;BMP180;55512;50.102;19.958;2023-06-01T07:45:39;98847.60;;;19.80
68510;BMP180;55512;50.102;19.958;2023-06-01T07:48:05;98842.80;;;19.90
68510;BMP180;55512;50.102;19.958;2023-06-01T07:50:31;98842.00;;;20.00
68510;BMP180;55512;50.102;19.958;2023-06-01T07:52:57;98839.00;;;20.10
68510;BMP180;55512;50.102;19.958;2023-06-01T07:55:23;98837.60;;;20.20
68510;BMP180;55512;50.102;19.958;2023-06-01T07:57:49;98832.20;;;20.26
68510;BMP180;55512;50.102;19.958;2023-06-01T08:00:16;98831.80;;;20.30
68510;BMP180;55512;50.102;19.958;2023-06-01T08:02:45;98830.00;;;20.40
68510;BMP180;55512;50.102;19.958;2023-06-01T08:05:11;98831.60;;;20.50
68510;BMP180;55512;50.102;19.958;2023-06-01T08:07:40;98830.60;;;20.60
68510;BMP180;55512;50.102;19.958;2023-06-01T08:10:08;98830.80;;;20.70
68510;BMP180;55512;50.102;19.958;2023-06-01T08:15:31;98819.60;;;20.88
68510;BMP180;55512;50.102;19.958;2023-06-01T08:17:57;98820.40;;;20.90
68510;BMP180;55512;50.102;19.958;2023-06-01T08:20:22;98813.80;;;21.00
68510;BMP180;55512;50.102;19.958;2023-06-01T08:22:49;98812.60;;;21.10
68510;BMP180;55512;50.102;19.958;2023-06-01T08:25:17;98807.40;;;21.24
68510;BMP180;55512;50.102;19.958;2023-06-01T08:27:43;98807.20;;;21.38
68510;BMP180;55512;50.102;19.958;2023-06-01T08:30:10;98807.20;;;21.50
68510;BMP180;55512;50.102;19.958;2023-06-01T08:32:36;98805.20;;;21.60
68510;BMP180;55512;50.102;19.958;2023-06-01T08:35:05;98803.20;;;21.70
68510;BMP180;55512;50.102;19.958;2023-06-01T08:37:31;98803.20;;;21.78
68510;BMP180;55512;50.102;19.958;2023-06-01T08:39:56;98801.80;;;21.90
68510;BMP180;55512;50.102;19.958;2023-06-01T08:42:51;98800.80;;;22.00
68510;BMP180;55512;50.102;19.958;2023-06-01T08:45:22;98796.80;;;22.18
68510;BMP180;55512;50.102;19.958;2023-06-01T08:47:52;98800.20;;;22.30
68510;BMP180;55512;50.102;19.958;2023-06-01T08:50:18;98796.80;;;22.40
68510;BMP180;55512;50.102;19.958;2023-06-01T08:52:46;98793.80;;;22.50
68510;BMP180;55512;50.102;19.958;2023-06-01T08:55:13;98796.60;;;22.60
68510;BMP180;55512;50.102;19.958;2023-06-01T08:57:41;98795.80;;;22.70
68510;BMP180;55512;50.102;19.958;2023-06-01T09:00:10;98790.40;;;22.80
68510;BMP180;55512;50.102;19.958;2023-06-01T09:02:35;98788.40;;;22.80
68510;BMP180;55512;50.102;19.958;2023-06-01T09:05:01;98787.00;;;22.90
68510;BMP180;55512;50.102;19.958;2023-06-01T09:07:28;98778.60;;;23.00
68510;BMP180;55512;50.102;19.958;2023-06-01T09:09:54;98780.40;;;23.10
68510;BMP180;55512;50.102;19.958;2023-06-01T09:12:26;98774.20;;;23.20
68510;BMP180;55512;50.102;19.958;2023-06-01T09:15:15;98772.00;;;23.20
68510;BMP180;55512;50.102;19.958;2023-06-01T09:17:47;98763.40;;;23.30
68510;BMP180;55512;50.102;19.958;2023-06-01T09:20:33;98760.00;;;23.30
68510;BMP180;55512;50.102;19.958;2023-06-01T09:22:59;98765.20;;;23.40
68510;BMP180;55512;50.102;19.958;2023-06-01T09:25:32;98761.40;;;23.40
68510;BMP180;55512;50.102;19.958;2023-06-01T09:28:00;98761.20;;;23.40
68510;BMP180;55512;50.102;19.958;2023-06-01T09:30:43;98766.80;;;23.40
68510;BMP180;55512;50.102;19.958;2023-06-01T09:33:16;98763.60;;;23.30
68510;BMP180;55512;50.102;19.958;2023-06-01T09:35:45;98763.40;;;23.30
68510;BMP180;55512;50.102;19.958;2023-06-01T09:38:20;98767.60;;;23.24
68510;BMP180;55512;50.102;19.958;2023-06-01T09:40:59;98767.20;;;23.30
68510;BMP180;55512;50.102;19.958;2023-06-01T09:43:26;98760.80;;;23.30
68510;BMP180;55512;50.102;19.958;2023-06-01T09:46:11;98753.60;;;23.32
68510;BMP180;55512;50.102;19.958;2023-06-01T09:48:39;98754.20;;;23.40
68510;BMP180;55512;50.102;19.958;2023-06-01T09:51:24;98751.40;;;23.40
68510;BMP180;55512;50.102;19.958;2023-06-01T09:53:54;98754.40;;;23.50
68510;BMP180;55512;50.102;19.958;2023-06-01T09:56:20;98751.20;;;23.50
68510;BMP180;55512;50.102;19.958;2023-06-01T09:58:46;98753.40;;;23.50
68510;BMP180;55512;50.102;19.958;2023-06-01T10:01:13;98749.80;;;23.60
68510;BMP180;55512;50.102;19.958;2023-06-01T10:03:42;98749.40;;;23.60
68510;BMP180;55512;50.102;19.958;2023-06-01T10:06:11;98745.00;;;23.60
68510;BMP180;55512;50.102;19.958;2023-06-01T10:08:37;98744.20;;;23.70
68510;BMP180;55512;50.102;19.958;2023-06-01T10:11:03;98745.20;;;23.78
68510;BMP180;55512;50.102;19.958;2023-06-01T10:13:29;98732.20;;;23.80
68510;BMP180;55512;50.102;19.958;2023-06-01T10:15:56;98735.20;;;23.90
68510;BMP180;55512;50.102;19.958;2023-06-01T10:18:22;98743.00;;;23.90
68510;BMP180;55512;50.102;19.958;2023-06-01T10:20:48;98739.20;;;23.90
68510;BMP180;55512;50.102;19.958;2023-06-01T10:23:14;98734.60;;;23.90
68510;BMP180;55512;50.102;19.958;2023-06-01T10:25:46;98728.00;;;23.90
68510;BMP180;55512;50.102;19.958;2023-06-01T10:28:13;98729.20;;;23.90
68510;BMP180;55512;50.102;19.958;2023-06-01T10:30:40;98728.40;;;24.00
68510;BMP180;55512;50.102;19.958;2023-06-01T10:33:06;98724.60;;;24.00
68510;BMP180;55512;50.102;19.958;2023-06-01T10:40:43;98726.20;;;24.00
68510;BMP180;55512;50.102;19.958;2023-06-01T10:48:57;98715.40;;;24.20
68510;BMP180;55512;50.102;19.958;2023-06-01T10:51:23;98706.60;;;24.30
68510;BMP180;55512;50.102;19.958;2023-06-01T10:53:50;98707.60;;;24.40
68510;BMP180;55512;50.102;19.958;2023-06-01T10:56:26;98708.60;;;24.50
68510;BMP180;55512;50.102;19.958;2023-06-01T10:59:12;98701.40;;;24.52
68510;BMP180;55512;50.102;19.958;2023-06-01T11:01:41;98700.60;;;24.60
68510;BMP180;55512;50.102;19.958;2023-06-01T11:04:07;98699.40;;;24.70
68510;BMP180;55512;50.102;19.958;2023-06-01T11:06:41;98697.40;;;24.80
68510;BMP180;55512;50.102;19.958;2023-06-01T11:09:10;98692.00;;;24.90
68510;BMP180;55512;50.102;19.958;2023-06-01T11:14:25;98693.00;;;25.00
68510;BMP180;55512;50.102;19.958;2023-06-01T11:16:55;98687.20;;;25.04
68510;BMP180;55512;50.102;19.958;2023-06-01T11:19:23;98680.40;;;25.12
68510;BMP180;55512;50.102;19.958;2023-06-01T11:22:00;98680.40;;;25.30
68510;BMP180;55512;50.102;19.958;2023-06-01T11:31:02;98668.80;;;25.50
68510;BMP180;55512;50.102;19.958;2023-06-01T11:33:29;98662.60;;;25.60
68510;BMP180;55512;50.102;19.958;2023-06-01T11:36:00;98664.00;;;25.70
68510;BMP180;55512;50.102;19.958;2023-06-01T11:38:35;98664.00;;;25.80
68510;BMP180;55512;50.102;19.958;2023-06-01T11:41:02;98662.00;;;25.90
68510;BMP180;55512;50.102;19.958;2023-06-01T11:43:32;98657.00;;;26.00
68510;BMP180;55512;50.102;19.958;2023-06-01T11:46:01;98658.00;;;26.10
68510;BMP180;55512;50.102;19.958;2023-06-01T11:48:28;98653.80;;;26.20
68510;BMP180;55512;50.102;19.958;2023-06-01T11:50:54;98653.00;;;26.30
68510;BMP180;55512;50.102;19.958;2023-06-01T11:53:21;98649.80;;;26.40
68510;BMP180;55512;50.102;19.958;2023-06-01T11:55:51;98643.80;;;26.52
68510;BMP180;55512;50.102;19.958;2023-06-01T11:58:30;98641.00;;;26.64
68510;BMP180;55512;50.102;19.958;2023-06-01T12:00:57;98644.20;;;26.70
68510;BMP180;55512;50.102;19.958;2023-06-01T12:03:24;98649.40;;;26.70
68510;BMP180;55512;50.102;19.958;2023-06-01T12:05:50;98640.40;;;26.64
68510;BMP180;55512;50.102;19.958;2023-06-01T12:08:19;98635.60;;;26.70
68510;BMP180;55512;50.102;19.958;2023-06-01T12:10:49;98638.80;;;26.70
68510;BMP180;55512;50.102;19.958;2023-06-01T12:13:17;98632.60;;;26.70
68510;BMP180;55512;50.102;19.958;2023-06-01T12:15:44;98641.80;;;26.78
68510;BMP180;55512;50.102;19.958;2023-06-01T12:18:11;98637.00;;;26.80
68510;BMP180;55512;50.102;19.958;2023-06-01T12:20:42;98636.00;;;26.80
68510;BMP180;55512;50.102;19.958;2023-06-01T12:23:12;98639.80;;;26.86
68510;BMP180;55512;50.102;19.958;2023-06-01T12:25:54;98639.20;;;26.90
68510;BMP180;55512;50.102;19.958;2023-06-01T12:28:22;98635.00;;;26.80
68510;BMP180;55512;50.102;19.958;2023-06-01T12:30:48;98627.60;;;26.86
68510;BMP180;55512;50.102;19.958;2023-06-01T12:33:35;98626.20;;;26.90
68510;BMP180;55512;50.102;19.958;2023-06-01T12:36:05;98623.00;;;27.00
68510;BMP180;55512;50.102;19.958;2023-06-01T12:38:50;98622.00;;;27.10
68510;BMP180;55512;50.102;19.958;2023-06-01T12:41:16;98626.80;;;27.14
68510;BMP180;55512;50.102;19.958;2023-06-01T12:43:47;98616.60;;;27.10
68510;BMP180;55512;50.102;19.958;2023-06-01T12:46:28;98608.00;;;27.08
68510;BMP180;55512;50.102;19.958;2023-06-01T12:49:11;98610.40;;;27.00
68510;BMP180;55512;50.102;19.958;2023-06-01T12:51:37;98602.60;;;27.00
68510;BMP180;55512;50.102;19.958;2023-06-01T12:54:03;98599.40;;;27.00
68510;BMP180;55512;50.102;19.958;2023-06-01T12:56:29;98605.00;;;27.20
68510;BMP180;55512;50.102;19.958;2023-06-01T12:58:55;98602.60;;;27.20
68510;BMP180;55512;50.102;19.958;2023-06-01T13:01:20;98597.00;;;27.20
68510;BMP180;55512;50.102;19.958;2023-06-01T13:03:46;98587.60;;;27.20
68510;BMP180;55512;50.102;19.958;2023-06-01T13:06:11;98590.60;;;27.30
68510;BMP180;55512;50.102;19.958;2023-06-01T13:08:37;98584.40;;;27.30
68510;BMP180;55512;50.102;19.958;2023-06-01T13:11:03;98582.40;;;27.36
68510;BMP180;55512;50.102;19.958;2023-06-01T13:13:29;98578.60;;;27.40
68510;BMP180;55512;50.102;19.958;2023-06-01T13:15:55;98577.00;;;27.42
68510;BMP180;55512;50.102;19.958;2023-06-01T13:18:20;98574.80;;;27.50
68510;BMP180;55512;50.102;19.958;2023-06-01T13:20:46;98562.60;;;27.60
68510;BMP180;55512;50.102;19.958;2023-06-01T13:23:12;98578.60;;;27.70
68510;BMP180;55512;50.102;19.958;2023-06-01T13:25:39;98568.40;;;27.70
68510;BMP180;55512;50.102;19.958;2023-06-01T13:28:06;98570.00;;;27.70
68510;BMP180;55512;50.102;19.958;2023-06-01T13:30:34;98565.80;;;27.70
68510;BMP180;55512;50.102;19.958;2023-06-01T13:33:00;98568.20;;;27.70
68510;BMP180;55512;50.102;19.958;2023-06-01T13:35:26;98566.80;;;27.80
68510;BMP180;55512;50.102;19.958;2023-06-01T13:37:52;98563.40;;;27.84
68510;BMP180;55512;50.102;19.958;2023-06-01T13:40:18;98560.20;;;28.00
68510;BMP180;55512;50.102;19.958;2023-06-01T13:42:49;98554.00;;;28.20
68510;BMP180;55512;50.102;19.958;2023-06-01T13:45:16;98560.00;;;28.40
68510;BMP180;55512;50.102;19.958;2023-06-01T13:47:42;98555.40;;;28.60
68510;BMP180;55512;50.102;19.958;2023-06-01T13:50:08;98557.00;;;28.70
68510;BMP180;55512;50.102;19.958;2023-06-01T13:52:33;98552.80;;;28.80
68510;BMP180;55512;50.102;19.958;2023-06-01T13:54:59;98547.60;;;28.90
68510;BMP180;55512;50.102;19.958;2023-06-01T13:57:25;98550.00;;;29.00
68510;BMP180;55512;50.102;19.958;2023-06-01T13:59:50;98543.80;;;29.00
68510;BMP180;55512;50.102;19.958;2023-06-01T14:02:16;98542.00;;;29.00
68510;BMP180;55512;50.102;19.958;2023-06-01T14:04:41;98548.40;;;29.10
68510;BMP180;55512;50.102;19.958;2023-06-01T14:07:07;98531.20;;;29.20
68510;BMP180;55512;50.102;19.958;2023-06-01T14:09:32;98532.00;;;29.30
68510;BMP180;55512;50.102;19.958;2023-06-01T14:11:58;98526.80;;;29.52
68510;BMP180;55512;50.102;19.958;2023-06-01T14:14:23;98520.80;;;29.80
68510;BMP180;55512;50.102;19.958;2023-06-01T14:16:49;98517.80;;;30.10
68510;BMP180;55512;50.102;19.958;2023-06-01T14:19:15;98515.20;;;30.40
68510;BMP180;55512;50.102;19.958;2023-06-01T14:21:40;98524.40;;;30.62
68510;BMP180;55512;50.102;19.958;2023-06-01T14:24:06;98517.40;;;30.78
68510;BMP180;55512;50.102;19.958;2023-06-01T14:26:32;98513.60;;;30.90
68510;BMP180;55512;50.102;19.958;2023-06-01T14:28:58;98510.20;;;31.10
68510;BMP180;55512;50.102;19.958;2023-06-01T14:31:23;98510.20;;;31.30
68510;BMP180;55512;50.102;19.958;2023-06-01T14:33:49;98506.80;;;31.50